Time;durP1;ratioP1;P1;durP2;ratioP2;P2;SDS_P1;SDS_P2;PMS_P1;PMS_P2;Temp;Humidity;BMP_temperature;BMP_pressure;BME280_temperature;BME280_humidity;BME280_pressure;Samples;Min_cycle;Max_cycle;Signal;HPM_P1;HPM_P2
2023/09/12 00:00:08;;;;;;;;;;;;;;;21.10;100.00;99495.53;4934844;29;19936;-78
2023/09/12 00:02:39;;;;;;;;;;;;;;;20.98;100.00;99493.72;4933713;29;20013;-79
2023/09/12 00:05:04;;;;;;;;;;;;;;;20.90;100.00;99496.66;4933477;29;19958;-78
2023/09/12 00:07:30;;;;;;;;;;;;;;;20.91;100.00;99498.31;4932811;29;19929;-79
2023/09/12 00:09:55;;;;;;;;;;;;;;;20.83;100.00;99493.97;4931620;29;20307;-79
2023/09/12 00:12:22;;;;;;;;;;;;;;;20.89;100.00;99495.00;4933341;29;19923;-78
2023/09/12 00:14:47;;;;;;;;;;;;;;;20.94;100.00;99505.91;4932913;29;20396;-78
2023/09/12 00:17:12;;;;;;;;;;;;;;;21.02;100.00;99503.00;4933122;29;19951;-79
2023/09/12 00:19:38;;;;;;;;;;;;;;;20.96;100.00;99506.53;4933161;29;19919;-79
2023/09/12 00:22:03;;;;;;;;;;;;;;;20.66;100.00;99501.66;4935706;29;20034;-78
2023/09/12 00:24:29;;;;;;;;;;;;;;;20.33;100.00;99495.47;4935121;29;19919;-78
2023/09/12 00:26:54;;;;;;;;;;;;;;;20.19;100.00;99493.81;4936197;29;19923;-78
2023/09/12 00:29:19;;;;;;;;;;;;;;;20.26;100.00;99500.00;4936800;29;20304;-78
2023/09/12 00:31:45;;;;;;;;;;;;;;;20.36;100.00;99495.09;4937392;29;19919;-78
2023/09/12 00:34:15;;;;;;;;;;;;;;;20.42;100.00;99488.91;4932802;29;19922;-78
2023/09/12 00:36:40;;;;;;;;;;;;;;;20.37;100.00;99486.03;4934668;29;20054;-78
2023/09/12 00:39:06;;;;;;;;;;;;;;;20.31;100.00;99492.19;4918773;29;19954;-77
2023/09/12 00:41:31;;;;;;;;;;;;;;;20.25;100.00;99487.63;4936290;29;19923;-77
2023/09/12 00:43:58;;;;;;;;;;;;;;;20.27;100.00;99491.75;4936105;29;20416;-77
2023/09/12 00:46:23;;;;;;;;;;;;;;;20.29;100.00;99488.88;4936196;29;19927;-76
2023/09/12 00:48:49;;;;;;;;;;;;;;;20.27;100.00;99490.91;4918836;29;20065;-78
2023/09/12 00:51:15;;;;;;;;;;;;;;;20.22;100.00;99485.34;4936409;29;19997;-77
2023/09/12 00:53:41;;;;;;;;;;;;;;;20.26;100.00;99478.56;4930683;29;19994;-77
2023/09/12 00:56:06;;;;;;;;;;;;;;;20.20;100.00;99479.41;4918721;29;19926;-77
2023/09/12 00:58:32;;;;;;;;;;;;;;;20.00;100.00;99490.94;4916367;29;19982;-80
2023/09/12 01:00:58;;;;;;;;;;;;;;;19.95;100.00;99487.22;4935701;29;19923;-77
2023/09/12 01:03:23;;;;;;;;;;;;;;;20.01;100.00;99481.88;4932612;29;20384;-77
2023/09/12 01:05:49;;;;;;;;;;;;;;;20.09;100.00;99482.69;4918180;29;19931;-77
2023/09/12 01:08:14;;;;;;;;;;;;;;;20.20;100.00;99490.13;4936040;29;20029;-77
2023/09/12 01:10:40;;;;;;;;;;;;;;;20.27;100.00;99480.19;4935849;29;20006;-78
2023/09/12 01:13:05;;;;;;;;;;;;;;;20.30;100.00;99485.16;4935696;29;19930;-76
2023/09/12 01:15:30;;;;;;;;;;;;;;;20.30;100.00;99487.84;4935880;29;20010;-78
2023/09/12 01:17:56;;;;;;;;;;;;;;;20.27;100.00;99480.19;4934561;29;19923;-78
2023/09/12 01:20:30;;;;;;;;;;;;;;;20.39;100.00;99483.94;4935694;29;19962;-78
2023/09/12 01:23:00;;;;;;;;;;;;;;;20.39;100.00;99490.13;4934446;29;20206;-78
2023/09/12 01:25:45;;;;;;;;;;;;;;;20.42;100.00;99494.25;4918469;29;19927;-78
2023/09/12 01:28:11;;;;;;;;;;;;;;;20.36;100.00;99484.38;4931674;29;20074;-77
2023/09/12 01:30:38;;;;;;;;;;;;;;;20.23;100.00;99484.34;4935846;29;19962;-77
2023/09/12 01:33:04;;;;;;;;;;;;;;;20.21;100.00;99483.69;4916751;29;20459;-78
2023/09/12 01:35:29;;;;;;;;;;;;;;;20.26;100.00;99486.63;4918272;29;19950;-78
2023/09/12 01:37:55;;;;;;;;;;;;;;;20.28;100.00;99487.22;4924159;29;19930;-78
2023/09/12 01:40:24;;;;;;;;;;;;;;;20.23;100.00;99479.81;4933949;29;20388;-79
2023/09/12 01:42:52;;;;;;;;;;;;;;;20.32;100.00;99483.13;4933577;29;20018;-79
2023/09/12 01:45:18;;;;;;;;;;;;;;;20.37;100.00;99476.13;4934813;29;20364;-79
2023/09/12 01:47:45;;;;;;;;;;;;;;;20.35;100.00;99485.38;4934776;29;20307;-78
2023/09/12 01:50:12;;;;;;;;;;;;;;;20.32;100.00;99477.78;4933920;29;20009;-78
2023/09/12 01:52:38;;;;;;;;;;;;;;;20.31;100.00;99476.09;4917761;29;19970;-79
2023/09/12 01:55:04;;;;;;;;;;;;;;;20.25;100.00;99472.38;4934693;29;19982;-77
2023/09/12 01:57:30;;;;;;;;;;;;;;;20.18;100.00;99470.72;4935183;29;19930;-77
2023/09/12 01:59:55;;;;;;;;;;;;;;;20.10;100.00;99469.06;4933214;29;19923;-78
2023/09/12 02:02:21;;;;;;;;;;;;;;;20.08;100.00;99470.34;4948988;29;20377;-77
2023/09/12 02:04:51;;;;;;;;;;;;;;;20.07;100.00;99476.72;4949264;29;19930;-78
2023/09/12 02:07:16;;;;;;;;;;;;;;;20.09;100.00;99471.97;4933487;29;19923;-77
2023/09/12 02:09:41;;;;;;;;;;;;;;;20.08;100.00;99470.34;4934142;29;19974;-78
2023/09/12 02:12:06;;;;;;;;;;;;;;;20.02;100.00;99470.13;4934657;29;19922;-77
2023/09/12 02:14:32;;;;;;;;;;;;;;;19.90;100.00;99469.09;4934835;29;19923;-78
2023/09/12 02:16:57;;;;;;;;;;;;;;;19.86;100.00;99475.84;4933697;29;19930;-77
2023/09/12 02:19:22;;;;;;;;;;;;;;;19.82;100.00;99477.31;4934571;29;19977;-78
2023/09/12 02:21:48;;;;;;;;;;;;;;;19.82;100.00;99477.31;4934319;29;20062;-77
2023/09/12 02:24:13;;;;;;;;;;;;;;;19.80;100.00;99476.69;4934741;29;19923;-78
2023/09/12 02:26:38;;;;;;;;;;;;;;;19.78;100.00;99476.06;4934609;29;19970;-78
2023/09/12 02:29:06;;;;;;;;;;;;;;;19.75;100.00;99471.13;4932833;29;19927;-78
2023/09/12 02:31:31;;;;;;;;;;;;;;;19.81;100.00;99469.47;4932618;29;19923;-78
2023/09/12 02:33:56;;;;;;;;;;;;;;;19.80;100.00;99468.66;4948600;29;20029;-78
2023/09/12 02:36:22;;;;;;;;;;;;;;;19.82;100.00;99461.25;4948517;29;20005;-79
2023/09/12 02:38:47;;;;;;;;;;;;;;;19.85;100.00;99460.03;4926250;29;19923;-78
2023/09/12 02:41:12;;;;;;;;;;;;;;;19.83;100.00;99452.19;4921683;29;19930;-79
2023/09/12 02:43:38;;;;;;;;;;;;;;;19.73;100.00;99454.44;4924631;29;19923;-79
2023/09/12 02:46:04;;;;;;;;;;;;;;;19.81;100.00;99464.94;4923604;29;19927;-78
2023/09/12 02:48:29;;;;;;;;;;;;;;;19.75;100.00;99460.41;4908190;29;19923;-79
2023/09/12 02:50:55;;;;;;;;;;;;;;;19.64;100.00;99458.34;4925948;29;19923;-79
2023/09/12 02:53:20;;;;;;;;;;;;;;;19.46;100.00;99460.75;4922465;29;19982;-78
2023/09/12 02:55:45;;;;;;;;;;;;;;;19.41;100.00;99463.19;4906274;29;19944;-79
2023/09/12 02:58:12;;;;;;;;;;;;;;;19.38;100.00;99463.59;4923057;29;20291;-78
2023/09/12 03:00:38;;;;;;;;;;;;;;;19.40;100.00;99456.19;4923322;29;20299;-78
2023/09/12 03:03:04;;;;;;;;;;;;;;;19.40;100.00;99461.53;4924167;29;19927;-77
2023/09/12 03:05:29;;;;;;;;;;;;;;;19.37;100.00;99469.97;4906651;29;20415;-78
2023/09/12 03:07:55;;;;;;;;;;;;;;;19.31;100.00;99470.78;4924733;29;20026;-79
2023/09/12 03:10:20;;;;;;;;;;;;;;;19.22;100.00;99462.09;4908191;29;19933;-78
2023/09/12 03:12:45;;;;;;;;;;;;;;;19.25;100.00;99466.22;4922072;29;19923;-77
2023/09/12 03:15:11;;;;;;;;;;;;;;;19.18;100.00;99466.19;4906150;29;19930;-78
2023/09/12 03:17:37;;;;;;;;;;;;;;;19.20;100.00;99466.84;4923780;29;19922;-77
2023/09/12 03:20:06;;;;;;;;;;;;;;;19.05;100.00;99466.97;4904615;29;20347;-78
2023/09/12 03:22:32;;;;;;;;;;;;;;;19.06;100.00;99471.31;4920246;29;20296;-76
2023/09/12 03:24:57;;;;;;;;;;;;;;;19.09;100.00;99470.88;4924620;29;19962;-76
2023/09/12 03:27:23;;;;;;;;;;;;;;;19.17;100.00;99467.22;4924822;29;20356;-78
2023/09/12 03:29:48;;;;;;;;;;;;;;;19.15;100.00;99469.25;4921295;29;20368;-76
2023/09/12 03:32:14;;;;;;;;;;;;;;;18.96;100.00;99473.53;4907682;29;19946;-78
2023/09/12 03:34:39;;;;;;;;;;;;;;;18.77;100.00;99472.41;4923071;29;20376;-79
2023/09/12 03:37:04;;;;;;;;;;;;;;;18.64;100.00;99477.66;4904912;29;19927;-79
2023/09/12 03:39:30;;;;;;;;;;;;;;;18.60;100.00;99476.41;4929105;29;20018;-78
2023/09/12 03:41:55;;;;;;;;;;;;;;;18.59;100.00;99484.63;4947605;29;20268;-77
2023/09/12 03:44:21;;;;;;;;;;;;;;;18.71;100.00;99475.03;4948299;29;19933;-78
2023/09/12 03:46:46;;;;;;;;;;;;;;;18.84;100.00;99483.13;4932897;29;19946;-78
2023/09/12 03:49:11;;;;;;;;;;;;;;;18.97;100.00;99482.34;4933245;29;19923;-79
2023/09/12 03:51:38;;;;;;;;;;;;;;;18.99;100.00;99481.13;4931883;29;20369;-78
2023/09/12 03:54:03;;;;;;;;;;;;;;;19.11;100.00;99484.91;4946793;29;19930;-76
2023/09/12 03:56:29;;;;;;;;;;;;;;;19.07;100.00;99482.81;4935536;28;19927;-78
2023/09/12 03:58:57;;;;;;;;;;;;;;;19.16;100.00;99490.47;4936691;29;20392;-78
2023/09/12 04:01:23;;;;;;;;;;;;;;;18.93;100.00;99484.59;4951705;29;20395;-78
2023/09/12 04:03:48;;;;;;;;;;;;;;;18.77;100.00;99482.25;4934759;29;20033;-78
2023/09/12 04:06:13;;;;;;;;;;;;;;;18.49;100.00;99478.75;4939031;29;19923;-78
2023/09/12 04:08:39;;;;;;;;;;;;;;;18.53;100.00;99485.38;4951573;29;19937;-78
2023/09/12 04:11:04;;;;;;;;;;;;;;;18.54;100.00;99476.34;4936455;29;20025;-78
2023/09/12 04:13:30;;;;;;;;;;;;;;;18.42;100.00;99479.53;4935405;29;19923;-78
2023/09/12 04:15:55;;;;;;;;;;;;;;;18.46;100.00;99479.97;4951150;29;19965;-78
2023/09/12 04:18:21;;;;;;;;;;;;;;;18.51;100.00;99479.38;4936948;29;20036;-78
2023/09/12 04:20:46;;;;;;;;;;;;;;;18.63;100.00;99481.34;4936262;29;19922;-78
2023/09/12 04:23:11;;;;;;;;;;;;;;;18.69;100.00;99488.56;4935042;29;19927;-78
2023/09/12 04:25:37;;;;;;;;;;;;;;;18.71;100.00;99488.41;4935896;29;19986;-78
2023/09/12 04:28:02;;;;;;;;;;;;;;;18.77;100.00;99492.94;4950922;29;19927;-78
2023/09/12 04:30:27;;;;;;;;;;;;;;;18.80;100.00;99503.25;4951065;29;20299;-79
2023/09/12 04:32:54;;;;;;;;;;;;;;;18.80;100.00;99511.25;4934859;29;19954;-79
2023/09/12 04:35:20;;;;;;;;;;;;;;;18.89;100.00;99518.13;4951029;28;19922;-78
2023/09/12 04:37:46;;;;;;;;;;;;;;;18.87;100.00;99520.16;4934888;29;20025;-79
2023/09/12 04:40:12;;;;;;;;;;;;;;;18.93;100.00;99516.69;4931596;23;19931;-74
2023/09/12 04:42:37;;;;;;;;;;;;;;;18.91;100.00;99516.06;4934874;29;19922;-75
2023/09/12 04:45:03;;;;;;;;;;;;;;;18.87;100.00;99516.66;4936883;29;19923;-77
2023/09/12 04:47:28;;;;;;;;;;;;;;;18.61;100.00;99520.00;4935560;29;20017;-75
2023/09/12 04:49:54;;;;;;;;;;;;;;;18.59;100.00;99522.03;4918396;29;20010;-75
2023/09/12 04:52:19;;;;;;;;;;;;;;;18.61;100.00;99520.00;4935792;29;19923;-75
2023/09/12 04:54:44;;;;;;;;;;;;;;;18.53;100.00;99517.44;4919406;29;19927;-75
2023/09/12 04:57:10;;;;;;;;;;;;;;;18.45;100.00;99522.91;4935271;29;19923;-75
2023/09/12 04:59:35;;;;;;;;;;;;;;;18.40;100.00;99524.31;4935153;29;19919;-75
2023/09/12 05:02:01;;;;;;;;;;;;;;;18.44;100.00;99535.44;4936834;29;19923;-75
2023/09/12 05:04:26;;;;;;;;;;;;;;;18.46;100.00;99535.25;4934647;29;19923;-74
2023/09/12 05:06:51;;;;;;;;;;;;;;;18.48;100.00;99533.22;4934140;29;19919;-80
2023/09/12 05:09:17;;;;;;;;;;;;;;;18.50;100.00;99525.81;4936433;29;20372;-73
2023/09/12 05:11:42;;;;;;;;;;;;;;;18.51;100.00;99527.47;4933325;29;19926;-74
2023/09/12 05:14:07;;;;;;;;;;;;;;;18.54;100.00;99529.78;4933069;29;19950;-75
2023/09/12 05:16:33;;;;;;;;;;;;;;;18.55;100.00;99526.13;4931243;29;19927;-76
2023/09/12 05:18:58;;;;;;;;;;;;;;;18.49;100.00;99532.22;4932752;29;19937;-75
2023/09/12 05:21:24;;;;;;;;;;;;;;;18.59;100.00;99530.03;4933428;29;19951;-76
2023/09/12 05:23:50;;;;;;;;;;;;;;;18.66;100.00;99525.56;4935978;29;19929;-75
2023/09/12 05:26:16;;;;;;;;;;;;;;;18.77;100.00;99519.69;4938380;29;20353;-77
2023/09/12 05:28:41;;;;;;;;;;;;;;;18.75;100.00;99529.75;4916301;29;19931;-79
2023/09/12 05:31:07;;;;;;;;;;;;;;;18.76;100.00;99524.19;4933422;29;19927;-78
2023/09/12 05:33:34;;;;;;;;;;;;;;;18.80;100.00;99530.78;4933450;29;19970;-78
2023/09/12 05:36:00;;;;;;;;;;;;;;;18.84;100.00;99531.25;4930774;29;19927;-78
2023/09/12 05:38:25;;;;;;;;;;;;;;;18.85;100.00;99527.53;4935382;29;19922;-79
2023/09/12 05:40:51;;;;;;;;;;;;;;;18.85;100.00;99526.72;4934532;29;19974;-79
2023/09/12 05:43:16;;;;;;;;;;;;;;;18.90;100.00;99522.44;4935698;29;19922;-79
2023/09/12 05:45:43;;;;;;;;;;;;;;;18.87;100.00;99536.19;4932381;29;19932;-78
2023/09/12 05:48:10;;;;;;;;;;;;;;;18.73;100.00;99534.47;4935407;29;20406;-79
2023/09/12 05:50:39;;;;;;;;;;;;;;;18.75;100.00;99537.75;4918129;29;19929;-80
2023/09/12 05:53:04;;;;;;;;;;;;;;;18.75;100.00;99533.25;4933325;29;19978;-79
2023/09/12 05:55:29;;;;;;;;;;;;;;;18.79;100.00;99531.81;4931199;29;19923;-79
2023/09/12 05:57:55;;;;;;;;;;;;;;;18.81;100.00;99542.31;4934469;29;20066;-78
2023/09/12 06:00:21;;;;;;;;;;;;;;;18.85;100.00;99543.56;4935386;29;19933;-79
2023/09/12 06:02:47;;;;;;;;;;;;;;;18.94;100.00;99545.09;4935396;29;20009;-79
2023/09/12 06:05:13;;;;;;;;;;;;;;;19.04;100.00;99547.38;4935744;29;19975;-78
2023/09/12 06:07:40;;;;;;;;;;;;;;;19.10;100.00;99542.09;4937831;29;19931;-78
2023/09/12 06:10:06;;;;;;;;;;;;;;;19.18;100.00;99549.97;4937662;29;19965;-79
2023/09/12 06:12:32;;;;;;;;;;;;;;;19.23;100.00;99552.84;4936584;29;19923;-79
2023/09/12 06:15:01;;;;;;;;;;;;;;;19.31;100.00;99551.03;4934966;29;19939;-80
2023/09/12 06:17:27;;;;;;;;;;;;;;;19.41;100.00;99554.16;4934915;29;20031;-79
2023/09/12 06:19:54;;;;;;;;;;;;;;;19.47;100.00;99558.75;4933349;29;19962;-80
2023/09/12 06:22:19;;;;;;;;;;;;;;;19.54;100.00;99567.66;4935111;29;19923;-80
2023/09/12 06:24:45;;;;;;;;;;;;;;;19.59;100.00;99567.88;4933681;29;19927;-80
2023/09/12 06:27:13;;;;;;;;;;;;;;;19.63;100.00;99563.75;4934873;29;19951;-79
2023/09/12 06:29:38;;;;;;;;;;;;;;;19.59;100.00;99562.50;4935001;29;19985;-80
2023/09/12 06:32:04;;;;;;;;;;;;;;;19.59;100.00;99565.19;4934523;29;19927;-80
2023/09/12 06:34:29;;;;;;;;;;;;;;;19.58;100.00;99566.22;4933673;29;20372;-78
2023/09/12 06:36:54;;;;;;;;;;;;;;;19.63;100.00;99564.56;4934578;29;19927;-79
2023/09/12 06:39:20;;;;;;;;;;;;;;;19.79;100.00;99566.06;4933951;29;19923;-78
2023/09/12 06:41:45;;;;;;;;;;;;;;;19.87;100.00;99565.88;4932715;29;19923;-80
2023/09/12 06:44:10;;;;;;;;;;;;;;;19.83;100.00;99575.34;4934472;29;19922;-80
2023/09/12 06:46:37;;;;;;;;;;;;;;;19.61;100.00;99581.88;4932877;29;19923;-79
2023/09/12 06:49:03;;;;;;;;;;;;;;;19.68;100.00;99582.72;4934060;29;19926;-80
2023/09/12 06:51:28;;;;;;;;;;;;;;;19.75;100.00;99588.91;4932146;29;20278;-80
2023/09/12 06:53:53;;;;;;;;;;;;;;;19.81;100.00;99592.66;4933798;29;19922;-79
2023/09/12 06:56:19;;;;;;;;;;;;;;;19.88;100.00;99586.28;4932962;29;19997;-80
2023/09/12 06:58:44;;;;;;;;;;;;;;;19.85;100.00;99578.63;4934043;29;19933;-79
2023/09/12 07:01:10;;;;;;;;;;;;;;;19.83;100.00;99575.34;4934842;29;19923;-79
2023/09/12 07:03:37;;;;;;;;;;;;;;;19.88;100.00;99578.25;4934810;29;19929;-80
2023/09/12 07:06:03;;;;;;;;;;;;;;;19.99;100.00;99584.88;4934748;29;20858;-80
2023/09/12 07:08:31;;;;;;;;;;;;;;;20.06;100.00;99579.53;4934241;29;19950;-80
2023/09/12 07:10:58;;;;;;;;;;;;;;;20.13;100.00;99577.69;4935122;29;19978;-79
2023/09/12 07:13:24;;;;;;;;;;;;;;;20.22;100.00;99574.59;4943789;29;19942;-80
2023/09/12 07:15:52;;;;;;;;;;;;;;;20.31;100.00;99576.06;4934733;29;19923;-80
2023/09/12 07:18:18;;;;;;;;;;;;;;;20.41;100.00;99578.38;4933989;29;19966;-80
2023/09/12 07:20:43;;;;;;;;;;;;;;;20.48;100.00;99595.28;4933789;29;20313;-79
2023/09/12 07:23:08;;;;;;;;;;;;;;;20.54;100.00;99590.97;4933109;29;19943;-80
2023/09/12 07:25:41;;;;;;;;;;;;;;;20.58;100.00;99595.69;4933547;29;20316;-78
2023/09/12 07:28:09;;;;;;;;;;;;;;;20.64;100.00;99594.88;4933174;29;20082;-79
2023/09/12 07:30:35;;;;;;;;;;;;;;;20.67;100.00;99591.78;4933381;29;19930;-78
2023/09/12 07:33:02;;;;;;;;;;;;;;;20.73;100.00;99596.31;4932998;29;19931;-78
2023/09/12 07:35:27;;;;;;;;;;;;;;;20.79;100.00;99606.19;4933422;29;19923;-79
2023/09/12 07:37:52;;;;;;;;;;;;;;;20.84;100.00;99598.38;4932785;29;19923;-79
2023/09/12 07:40:18;;;;;;;;;;;;;;;20.92;100.00;99596.50;4925330;29;19923;-79
2023/09/12 07:42:43;;;;;;;;;;;;;;;20.99;100.00;99606.19;4904754;29;20380;-80
2023/09/12 07:51:20;;;;;;;;;;;;;;;21.26;100.00;99615.06;5427006;23;19977;-79
2023/09/12 07:53:45;;;;;;;;;;;;;;;21.39;100.00;99615.00;4943715;29;19923;-79
2023/09/12 07:56:11;;;;;;;;;;;;;;;21.46;100.00;99610.44;4923147;29;19926;-80
2023/09/12 07:58:36;;;;;;;;;;;;;;;21.51;100.00;99610.63;4943177;29;19923;-79
2023/09/12 08:01:08;;;;;;;;;;;;;;;21.51;100.00;99617.84;4943242;29;20014;-79
2023/09/12 08:03:38;;;;;;;;;;;;;;;21.51;100.00;99615.16;4939967;29;20352;-79
2023/09/12 08:06:03;;;;;;;;;;;;;;;21.52;100.00;99625.72;4942750;29;19926;-80
2023/09/12 08:08:29;;;;;;;;;;;;;;;21.53;100.00;99631.91;4941808;29;19962;-80
2023/09/12 08:10:54;;;;;;;;;;;;;;;21.50;100.00;99627.75;4925708;29;19977;-79
2023/09/12 08:13:21;;;;;;;;;;;;;;;21.47;100.00;99633.56;4943393;29;20363;-80
2023/09/12 08:15:46;;;;;;;;;;;;;;;21.42;100.00;99636.06;4940334;29;19933;-80
2023/09/12 08:18:12;;;;;;;;;;;;;;;21.41;100.00;99633.59;4924369;29;20335;-80
2023/09/12 08:20:37;;;;;;;;;;;;;;;21.42;100.00;99629.88;4944750;29;20371;-80
2023/09/12 08:23:03;;;;;;;;;;;;;;;21.44;100.00;99639.34;4941472;29;20030;-78
2023/09/12 08:25:28;;;;;;;;;;;;;;;21.45;100.00;99651.75;4941933;29;19923;-79
2023/09/12 08:27:53;;;;;;;;;;;;;;;21.49;100.00;99646.78;4943124;29;19923;-80
2023/09/12 08:30:19;;;;;;;;;;;;;;;21.45;100.00;99646.38;4942518;29;19922;-80
2023/09/12 08:32:44;;;;;;;;;;;;;;;21.39;100.00;99639.16;4941991;29;19923;-80
2023/09/12 08:35:13;;;;;;;;;;;;;;;21.45;100.00;99643.69;4939665;29;19934;-80
2023/09/12 08:37:40;;;;;;;;;;;;;;;21.49;100.00;99642.25;4923173;29;20036;-79
2023/09/12 08:40:07;;;;;;;;;;;;;;;21.61;100.00;99645.94;4943655;29;19923;-80
2023/09/12 08:42:37;;;;;;;;;;;;;;;21.75;100.00;99648.53;4929812;29;19922;-80
2023/09/12 08:45:03;;;;;;;;;;;;;;;21.84;100.00;99644.59;4945455;29;19994;-79
2023/09/12 08:47:29;;;;;;;;;;;;;;;21.84;100.00;99639.22;4947109;29;19922;-79
2023/09/12 08:49:55;;;;;;;;;;;;;;;21.90;100.00;99643.75;4946257;29;19922;-79
2023/09/12 08:52:21;;;;;;;;;;;;;;;21.99;100.00;99642.47;4941224;29;19960;-79
2023/09/12 08:54:46;;;;;;;;;;;;;;;22.04;100.00;99642.66;4947117;29;20456;-78
2023/09/12 08:57:13;;;;;;;;;;;;;;;22.12;100.00;99639.72;4944668;29;20009;-79
2023/09/12 08:59:39;;;;;;;;;;;;;;;22.19;100.00;99642.38;4946947;29;19922;-79
2023/09/12 09:02:07;;;;;;;;;;;;;;;22.28;100.00;99635.69;4943341;29;19923;-78
2023/09/12 09:04:32;;;;;;;;;;;;;;;22.38;100.00;99636.06;4947006;29;19949;-79
2023/09/12 09:06:59;;;;;;;;;;;;;;;22.45;100.00;99647.59;4947079;29;20802;-79
2023/09/12 09:09:25;;;;;;;;;;;;;;;22.53;100.00;99644.66;4945835;29;20029;-78
2023/09/12 09:11:51;;;;;;;;;;;;;;;22.60;100.00;99652.66;4942953;29;20017;-79
2023/09/12 09:14:16;;;;;;;;;;;;;;;22.67;100.00;99642.69;4947319;29;20017;-78
2023/09/12 09:16:41;;;;;;;;;;;;;;;22.73;100.00;99639.16;4926683;29;20017;-79
2023/09/12 09:19:09;;;;;;;;;;;;;;;22.81;100.00;99641.56;4945552;29;20021;-79
2023/09/12 09:21:35;;;;;;;;;;;;;;;22.91;100.00;99647.28;4945993;29;20378;-80
2023/09/12 09:24:05;;;;;;;;;;;;;;;22.94;100.00;99641.44;4930704;29;20378;-79
2023/09/12 09:26:45;;;;;;;;;;;;;;;23.05;100.00;99654.19;4946928;29;20033;-79
2023/09/12 09:29:15;;;;;;;;;;;;;;;23.12;100.00;99644.19;4944826;29;19927;-79
2023/09/12 09:31:41;;;;;;;;;;;;;;;23.17;100.00;99638.94;4944412;29;20451;-79
2023/09/12 09:34:16;;;;;;;;;;;;;;;23.22;100.00;99639.09;4944090;29;19922;-79
2023/09/12 09:36:43;;;;;;;;;;;;;;;23.30;100.00;99637.19;4928398;29;19922;-80
2023/09/12 09:39:08;;;;;;;;;;;;;;;23.37;100.00;99629.84;4945310;29;20296;-80
2023/09/12 09:41:34;;;;;;;;;;;;;;;23.44;100.00;99625.22;4943786;29;19923;-79
2023/09/12 09:43:59;;;;;;;;;;;;;;;23.52;100.00;99623.06;4943183;29;19922;-80
2023/09/12 09:46:25;;;;;;;;;;;;;;;23.58;100.00;99622.19;4943069;29;19930;-79
2023/09/12 09:48:51;;;;;;;;;;;;;;;23.63;100.00;99626.88;4943251;29;19933;-80
2023/09/12 09:51:16;;;;;;;;;;;;;;;23.69;100.00;99617.91;4946483;29;19923;-80
2023/09/12 09:53:43;;;;;;;;;;;;;;;23.75;100.00;99617.00;4929611;29;19964;-80
2023/09/12 09:56:15;;;;;;;;;;;;;;;23.80;100.00;99617.13;4926700;29;19930;-80
2023/09/12 09:58:47;;;;;;;;;;;;;;;23.88;100.00;99608.75;4944717;29;19930;-79
2023/09/12 10:01:13;;;;;;;;;;;;;;;23.94;100.00;99610.53;4945837;29;19930;-79
2023/09/12 10:03:40;;;;;;;;;;;;;;;23.99;100.00;99616.06;4943496;29;19985;-80
2023/09/12 10:06:07;;;;;;;;;;;;;;;24.00;100.00;99615.00;4945727;29;19926;-79
2023/09/12 10:08:33;;;;;;;;;;;;;;;24.02;100.00;99610.22;4942238;29;19923;-79
2023/09/12 10:10:59;;;;;;;;;;;;;;;24.05;100.00;99607.06;4943489;29;20402;-80
2023/09/12 10:13:31;;;;;;;;;;;;;;;24.08;100.00;99612.00;4945625;29;19922;-79
2023/09/12 10:15:56;;;;;;;;;;;;;;;24.13;100.00;99602.41;4943366;29;19928;-80
2023/09/12 10:18:24;;;;;;;;;;;;;;;24.17;100.00;99598.19;4944178;29;20287;-79
2023/09/12 10:20:56;;;;;;;;;;;;;;;24.18;100.00;99597.13;4945486;29;19923;-79
2023/09/12 10:23:21;;;;;;;;;;;;;;;24.23;100.00;99608.91;4942013;29;20450;-80
2023/09/12 10:25:49;;;;;;;;;;;;;;;24.28;100.00;99600.94;4945299;29;20017;-79
2023/09/12 10:28:14;;;;;;;;;;;;;;;24.35;100.00;99595.47;4934542;29;20029;-80
2023/09/12 10:30:40;;;;;;;;;;;;;;;24.40;100.00;99584.78;4944297;29;20013;-80
2023/09/12 10:33:06;;;;;;;;;;;;;;;24.46;100.00;99581.16;4947282;29;19930;-80
2023/09/12 10:35:32;;;;;;;;;;;;;;;24.49;100.00;99586.13;4943757;29;19969;-81
2023/09/12 10:38:05;;;;;;;;;;;;;;;24.56;100.00;99584.13;4940695;29;19966;-80
2023/09/12 10:40:31;;;;;;;;;;;;;;;24.62;100.00;99575.13;4943421;29;19919;-81
2023/09/12 10:42:57;;;;;;;;;;;;;;;24.67;100.00;99572.53;4940920;29;19923;-81
2023/09/12 10:45:22;;;;;;;;;;;;;;;24.72;100.00;99580.75;4944027;29;20320;-81
2023/09/12 10:47:48;;;;;;;;;;;;;;;24.77;100.00;99575.47;4942172;29;20015;-80
2023/09/12 10:50:14;;;;;;;;;;;;;;;24.85;100.00;99580.53;4943845;29;20392;-81
2023/09/12 10:52:40;;;;;;;;;;;;;;;24.91;100.00;99572.56;4946905;29;19931;-79
2023/09/12 10:55:06;;;;;;;;;;;;;;;24.96;100.00;99573.50;4942588;29;20013;-80
2023/09/12 10:57:32;;;;;;;;;;;;;;;24.98;100.00;99568.69;4943777;29;20006;-80
2023/09/12 11:00:04;;;;;;;;;;;;;;;25.01;100.00;99567.41;4945700;29;19923;-79
2023/09/12 11:02:30;;;;;;;;;;;;;;;25.07;100.00;99566.44;4943535;29;19930;-80
2023/09/12 11:04:56;;;;;;;;;;;;;;;25.13;100.00;99566.31;4942593;29;19929;-79
2023/09/12 11:07:31;;;;;;;;;;;;;;;25.21;100.00;99559.75;4941811;29;19931;-79
2023/09/12 11:10:15;;;;;;;;;;;;;;;25.32;100.00;99558.91;4923849;29;20372;-79
2023/09/12 11:12:40;;;;;;;;;;;;;;;25.41;100.00;99552.06;4944893;29;19923;-80
2023/09/12 11:15:06;;;;;;;;;;;;;;;25.42;100.00;99542.91;4945248;29;19922;-79
2023/09/12 11:17:37;;;;;;;;;;;;;;;25.43;100.00;99549.13;4943947;29;20410;-80
2023/09/12 11:20:04;;;;;;;;;;;;;;;25.51;100.00;99544.16;4945474;29;19929;-80
2023/09/12 11:22:31;;;;;;;;;;;;;;;25.56;100.00;99548.84;4943700;29;19969;-80
2023/09/12 11:25:01;;;;;;;;;;;;;;;25.64;100.00;99543.91;4938986;29;19922;-79
2023/09/12 11:27:31;;;;;;;;;;;;;;;25.74;100.00;99539.78;4946586;29;19962;-80
2023/09/12 11:30:03;;;;;;;;;;;;;;;25.77;100.00;99544.69;4939928;29;19929;-79
2023/09/12 11:32:32;;;;;;;;;;;;;;;25.85;100.00;99538.91;4952639;29;19958;-80
2023/09/12 11:34:58;;;;;;;;;;;;;;;25.98;100.00;99535.88;4948221;29;19926;-79
2023/09/12 11:37:28;;;;;;;;;;;;;;;26.07;100.00;99545.25;4937290;29;19952;-80
2023/09/12 11:39:54;;;;;;;;;;;;;;;26.15;100.00;99531.34;4944662;29;19971;-81
2023/09/12 11:42:21;;;;;;;;;;;;;;;26.25;100.00;99525.31;4941647;29;19930;-82
2023/09/12 11:44:46;;;;;;;;;;;;;;;26.35;100.00;99531.69;4942529;29;19922;-81
2023/09/12 11:47:12;;;;;;;;;;;;;;;26.42;100.00;99526.94;4943622;29;20307;-81
2023/09/12 11:49:39;;;;;;;;;;;;;;;26.60;100.00;99533.16;4944288;29;19923;-80
2023/09/12 11:52:08;;;;;;;;;;;;;;;26.74;100.00;99529.06;4940670;29;19927;-81
2023/09/12 11:54:33;;;;;;;;;;;;;;;26.96;100.00;99532.66;4942843;29;19938;-81
2023/09/12 11:56:59;;;;;;;;;;;;;;;27.14;100.00;99529.66;4924628;29;19927;-79
2023/09/12 11:59:28;;;;;;;;;;;;;;;27.32;100.00;99530.41;4946469;29;19922;-80
2023/09/12 12:01:54;;;;;;;;;;;;;;;27.48;100.00;99519.50;4941325;29;19922;-81
2023/09/12 12:04:23;;;;;;;;;;;;;;;27.63;100.00;99514.25;4943760;29;19970;-82
2023/09/12 12:06:50;;;;;;;;;;;;;;;27.72;100.00;99522.78;4944500;29;19926;-81
2023/09/12 12:09:18;;;;;;;;;;;;;;;27.79;100.00;99522.56;4927180;29;20303;-81
2023/09/12 12:11:43;;;;;;;;;;;;;;;27.73;100.00;99516.28;4943047;29;19923;-81
2023/09/12 12:14:10;;;;;;;;;;;;;;;27.83;100.00;99513.66;4927349;29;19930;-81
2023/09/12 12:16:35;;;;;;;;;;;;;;;27.96;100.00;99505.13;4944226;29;19922;-81
2023/09/12 12:19:01;;;;;;;;;;;;;;;28.21;100.00;99507.28;4930790;29;19930;-81
2023/09/12 12:21:27;;;;;;;;;;;;;;;28.48;100.00;99501.78;4945140;29;20051;-81
2023/09/12 12:24:03;;;;;;;;;;;;;;;28.69;100.00;99489.13;4945765;29;20006;-82
2023/09/12 12:26:28;;;;;;;;;;;;;;;28.94;100.00;99480.34;4947568;29;20328;-81
2023/09/12 12:28:54;;;;;;;;;;;;;;;29.09;98.75;99483.16;4944013;29;19918;-79
2023/09/12 12:31:20;;;;;;;;;;;;;;;29.24;96.07;99473.16;4945813;29;19923;-79
2023/09/12 12:33:49;;;;;;;;;;;;;;;29.24;95.08;99465.00;4940694;29;20530;-80
2023/09/12 12:36:14;;;;;;;;;;;;;;;29.28;95.42;99468.00;4943363;29;19922;-80
2023/09/12 12:38:39;;;;;;;;;;;;;;;29.40;94.10;99465.88;4946932;29;19931;-80